Time;durP1;ratioP1;P1;durP2;ratioP2;P2;SDS_P1;SDS_P2;PMS_P1;PMS_P2;Temp;Humidity;BMP_temperature;BMP_pressure;BME280_temperature;BME280_humidity;BME280_pressure;Samples;Min_cycle;Max_cycle;Signal;HPM_P1;HPM_P2
2022/09/14 00:01:54;;;;;;;20.98;6.93;;;;;;;21.17;53.02;100976.97;5096284;28;20028;-77
2022/09/14 00:04:20;;;;;;;18.50;6.85;;;;;;;21.09;53.83;100961.22;5078105;28;20031;-79
2022/09/14 00:06:46;;;;;;;16.23;7.10;;;;;;;21.07;53.00;100957.97;5095928;28;20116;-78
2022/09/14 00:09:21;;;;;;;12.55;6.43;;;;;;;21.07;53.46;100952.50;5096101;28;20074;-80
2022/09/14 00:11:47;;;;;;;14.13;7.47;;;;;;;21.08;53.42;100951.41;5096080;28;20509;-78
2022/09/14 00:14:15;;;;;;;13.43;6.30;;;;;;;21.13;53.24;100945.09;5095953;28;20028;-80
2022/09/14 00:16:41;;;;;;;16.13;6.93;;;;;;;21.08;53.62;100945.13;5078323;28;20028;-79
2022/09/14 00:19:15;;;;;;;24.00;6.90;;;;;;;20.99;53.86;100944.94;5096068;28;20028;-77
2022/09/14 00:21:41;;;;;;;21.83;8.57;;;;;;;20.95;54.37;100955.63;5095617;28;20506;-78
2022/09/14 00:24:09;;;;;;;15.65;7.25;;;;;;;21.28;53.42;100953.06;5095914;28;20024;-79
2022/09/14 00:26:35;;;;;;;22.80;8.48;;;;;;;21.35;53.11;100951.59;5096025;28;20036;-78
2022/09/14 00:29:03;;;;;;;24.08;7.55;;;;;;;21.18;53.85;100947.75;5095205;28;20047;-81
2022/09/14 00:31:34;;;;;;;18.38;7.40;;;;;;;21.12;53.49;100937.97;5077328;28;20044;-77
2022/09/14 00:34:01;;;;;;;13.05;6.60;;;;;;;21.05;54.15;100935.59;5077897;28;20040;-80
2022/09/14 00:36:28;;;;;;;23.98;8.80;;;;;;;21.03;54.32;100932.34;5096305;28;20097;-78
2022/09/14 00:38:59;;;;;;;19.05;7.47;;;;;;;21.03;53.83;100934.28;5095794;28;20085;-80
2022/09/14 00:41:36;;;;;;;18.42;7.60;;;;;;;20.98;54.10;100930.47;5095395;28;20399;-77
2022/09/14 00:44:01;;;;;;;17.60;7.50;;;;;;;21.11;54.00;100931.69;5094974;28;20097;-80
2022/09/14 00:46:36;;;;;;;24.05;8.07;;;;;;;21.26;53.76;100926.03;5095892;28;20460;-79
2022/09/14 00:49:06;;;;;;;26.33;9.02;;;;;;;20.95;54.32;100922.84;5095032;28;20028;-77
2022/09/14 00:51:33;;;;;;;25.40;7.57;;;;;;;21.06;54.06;100926.28;5095169;28;20063;-78
2022/09/14 00:54:03;;;;;;;15.30;7.30;;;;;;;21.29;52.99;100925.44;5095137;28;20039;-80
2022/09/14 00:56:29;;;;;;;23.35;7.65;;;;;;;21.38;52.90;100926.44;5096112;28;20093;-79
2022/09/14 00:58:57;;;;;;;15.20;8.07;;;;;;;21.14;53.69;100928.38;5095230;28;20056;-78
2022/09/14 01:01:25;;;;;;;18.27;7.22;;;;;;;20.96;53.45;100924.47;5095712;28;20106;-77
2022/09/14 01:03:50;;;;;;;24.73;9.05;;;;;;;21.09;53.96;100922.97;5095306;28;20124;-78
2022/09/14 01:06:25;;;;;;;17.45;7.47;;;;;;;20.93;53.50;100914.13;5094950;28;20040;-78
2022/09/14 01:09:08;;;;;;;18.63;7.30;;;;;;;20.92;54.02;100904.31;5094657;28;20055;-79
2022/09/14 01:11:49;;;;;;;16.98;7.53;;;;;;;20.96;54.16;100908.09;5094736;28;20044;-79
2022/09/14 01:14:39;;;;;;;14.90;6.97;;;;;;;20.84;54.59;100909.59;5094805;28;20028;-78
2022/09/14 01:17:16;;;;;;;17.97;7.60;;;;;;;20.94;54.84;100904.81;5095082;28;20024;-80
2022/09/14 01:20:13;;;;;;;18.58;8.80;;;;;;;21.08;53.91;100904.97;5095448;28;20028;-78
2022/09/14 01:23:04;;;;;;;17.90;7.50;;;;;;;20.94;54.06;100904.00;5094951;28;20071;-79
2022/09/14 01:25:32;;;;;;;16.27;8.07;;;;;;;20.89;54.60;100904.88;5089525;28;20139;-77
2022/09/14 01:28:02;;;;;;;16.65;7.82;;;;;;;20.82;54.56;100893.50;5094147;28;20040;-80
2022/09/14 01:30:32;;;;;;;18.83;8.47;;;;;;;20.77;54.69;100885.38;5094234;28;20089;-79
2022/09/14 01:33:08;;;;;;;20.33;8.17;;;;;;;20.74;54.45;100893.31;5094434;28;20040;-79
2022/09/14 01:35:49;;;;;;;18.42;7.85;;;;;;;20.73;54.46;100889.78;5094752;28;20040;-78
2022/09/14 01:38:22;;;;;;;18.00;7.90;;;;;;;20.48;55.27;100884.59;5094517;28;20040;-79
2022/09/14 01:40:49;;;;;;;20.58;7.88;;;;;;;20.56;54.91;100883.97;5094474;28;20360;-77
2022/09/14 01:43:21;;;;;;;17.27;8.70;;;;;;;20.63;55.07;100883.63;5094296;28;20028;-79
2022/09/14 01:45:51;;;;;;;13.68;7.68;;;;;;;20.57;55.09;100887.50;5093876;28;20071;-78
2022/09/14 01:48:24;;;;;;;19.48;9.05;;;;;;;20.74;54.43;100891.41;5093933;28;20067;-77
2022/09/14 01:50:54;;;;;;;21.80;8.90;;;;;;;20.65;54.53;100886.88;5093891;28;20034;-79
2022/09/14 01:53:33;;;;;;;17.98;8.70;;;;;;;20.69;54.47;100880.56;5093634;28;20055;-79
2022/09/14 01:56:19;;;;;;;14.60;7.57;;;;;;;20.47;55.13;100877.53;5093528;28;20059;-79
2022/09/14 01:58:56;;;;;;;16.70;8.10;;;;;;;20.67;55.09;100877.31;5094080;28;20408;-78
2022/09/14 02:01:29;;;;;;;14.07;8.13;;;;;;;20.59;55.16;100877.94;5093289;28;20056;-79
2022/09/14 02:04:01;;;;;;;15.52;8.52;;;;;;;20.61;54.85;100883.91;5093842;28;20407;-77
2022/09/14 02:06:36;;;;;;;17.77;8.85;;;;;;;20.69;54.52;100883.28;5075276;28;20036;-77
2022/09/14 02:09:03;;;;;;;17.80;8.30;;;;;;;20.66;54.50;100870.19;5093802;28;20036;-79
2022/09/14 02:11:28;;;;;;;15.88;7.68;;;;;;;20.65;54.69;100867.75;5093859;28;20122;-77
2022/09/14 02:13:54;;;;;;;21.52;9.02;;;;;;;20.86;54.44;100869.13;5093563;28;20023;-78
2022/09/14 02:16:22;;;;;;;16.30;7.55;;;;;;;20.69;54.85;100866.91;5094250;28;20039;-79
2022/09/14 02:18:47;;;;;;;12.60;6.72;;;;;;;20.55;54.97;100865.97;5093190;28;20085;-78
2022/09/14 02:21:20;;;;;;;16.08;7.03;;;;;;;20.62;54.73;100868.31;5093919;28;20031;-78
2022/09/14 02:23:47;;;;;;;12.38;7.28;;;;;;;20.55;55.28;100865.97;5093447;28;20039;-78
2022/09/14 02:26:15;;;;;;;19.65;7.80;;;;;;;20.61;54.85;100864.81;5093806;28;20024;-78
2022/09/14 02:28:40;;;;;;;12.15;7.20;;;;;;;20.64;54.57;100871.59;5093132;28;20093;-80
2022/09/14 02:31:29;;;;;;;13.52;7.57;;;;;;;20.55;54.81;100856.97;5093196;28;20404;-77
2022/09/14 02:34:08;;;;;;;13.75;8.23;;;;;;;20.60;54.82;100852.25;5075518;28;20040;-78
2022/09/14 02:36:42;;;;;;;15.88;8.07;;;;;;;20.68;54.68;100846.13;5093161;28;20055;-78
2022/09/14 02:39:24;;;;;;;18.80;7.75;;;;;;;20.73;54.78;100845.28;5074083;28;20036;-78
2022/09/14 02:42:15;;;;;;;14.55;6.57;;;;;;;20.81;54.26;100842.69;5092727;28;20040;-78
2022/09/14 02:45:02;;;;;;;14.73;7.13;;;;;;;20.82;54.25;100836.13;5092608;28;20043;-79
2022/09/14 02:47:54;;;;;;;20.70;8.15;;;;;;;20.73;54.67;100842.53;5074639;28;20074;-78
2022/09/14 02:50:34;;;;;;;15.18;7.97;;;;;;;20.89;54.67;100833.06;5074290;28;20044;-79
2022/09/14 02:53:16;;;;;;;17.77;7.68;;;;;;;20.96;54.10;100834.31;5092422;28;20352;-79
2022/09/14 02:55:48;;;;;;;15.05;8.13;;;;;;;20.95;54.11;100832.66;5093108;28;20036;-78
2022/09/14 02:58:13;;;;;;;18.83;7.95;;;;;;;20.98;54.14;100834.84;5092480;28;20119;-77
2022/09/14 03:00:47;;;;;;;11.07;7.15;;;;;;;20.82;54.94;100829.84;5092745;28;20036;-78
2022/09/14 03:03:16;;;;;;;15.00;8.93;;;;;;;20.78;55.38;100817.88;5092488;28;20160;-76
2022/09/14 03:05:41;;;;;;;13.50;7.50;;;;;;;20.71;55.07;100822.91;5092505;28;20047;-77
2022/09/14 03:08:09;;;;;;;17.73;7.93;;;;;;;20.83;54.56;100818.63;5092635;28;20062;-77
2022/09/14 03:10:34;;;;;;;13.63;7.72;;;;;;;20.86;54.24;100820.78;5093517;28;20055;-79
2022/09/14 03:13:02;;;;;;;19.38;8.48;;;;;;;20.87;54.06;100819.66;5074638;28;20075;-79
2022/09/14 03:15:28;;;;;;;13.90;6.35;;;;;;;21.04;53.67;100821.94;5092570;28;20488;-79
2022/09/14 03:17:53;;;;;;;14.52;6.78;;;;;;;20.96;54.04;100822.56;5093104;28;20037;-79
2022/09/14 03:20:25;;;;;;;18.75;7.63;;;;;;;20.74;54.71;100820.41;5074852;28;20044;-78
2022/09/14 03:22:50;;;;;;;17.20;7.47;;;;;;;20.67;54.75;100821.84;5092556;28;20448;-75
2022/09/14 03:25:18;;;;;;;14.32;7.80;;;;;;;20.67;55.19;100824.59;5095035;28;20020;-77
2022/09/14 03:27:47;;;;;;;17.60;7.22;;;;;;;20.84;54.31;100819.44;5095871;28;20024;-79
2022/09/14 03:30:13;;;;;;;13.52;6.80;;;;;;;20.74;54.93;100814.09;5074482;28;20052;-78
2022/09/14 03:32:38;;;;;;;17.25;7.82;;;;;;;20.62;55.01;100809.06;5076275;28;20029;-79
2022/09/14 03:35:04;;;;;;;12.55;7.25;;;;;;;20.66;54.69;100809.28;5076158;28;20033;-77
2022/09/14 03:37:29;;;;;;;10.18;6.95;;;;;;;20.69;55.07;100808.72;5074999;28;20478;-77
2022/09/14 03:39:55;;;;;;;10.55;6.55;;;;;;;20.66;55.02;100807.38;5074575;28;20105;-78
2022/09/14 03:42:20;;;;;;;17.73;7.18;;;;;;;20.67;54.95;100805.47;5074492;28;20436;-78
2022/09/14 03:44:45;;;;;;;15.48;7.40;;;;;;;20.67;55.15;100800.00;5075678;28;20033;-78
2022/09/14 03:47:11;;;;;;;20.15;7.75;;;;;;;20.75;55.03;100796.63;5076019;28;20048;-78
2022/09/14 03:49:36;;;;;;;15.98;8.55;;;;;;;20.81;55.04;100793.53;5076545;28;20031;-77
2022/09/14 03:52:03;;;;;;;17.58;7.10;;;;;;;20.78;54.90;100796.03;5076380;28;20097;-79
2022/09/14 03:54:28;;;;;;;16.33;6.72;;;;;;;20.68;55.36;100791.53;5075722;28;20503;-79
2022/09/14 03:56:54;;;;;;;13.98;7.35;;;;;;;20.67;55.16;100789.09;5074441;28;20028;-78
2022/09/14 03:59:20;;;;;;;18.05;7.50;;;;;;;20.89;54.35;100794.81;5075919;28;20048;-79
2022/09/14 04:01:46;;;;;;;13.73;7.07;;;;;;;20.80;54.71;100788.34;5074424;28;20031;-79
2022/09/14 04:04:12;;;;;;;18.80;8.07;;;;;;;20.91;54.50;100787.91;5075096;28;20036;-80
2022/09/14 04:06:37;;;;;;;18.75;7.78;;;;;;;21.00;53.54;100790.81;5075044;28;20070;-78
2022/09/14 04:09:03;;;;;;;17.90;6.97;;;;;;;21.10;53.83;100787.97;5074693;28;20040;-77
2022/09/14 04:11:30;;;;;;;13.02;7.07;;;;;;;20.92;54.50;100788.75;5075119;28;20566;-78
2022/09/14 04:14:00;;;;;;;16.77;7.60;;;;;;;20.87;54.56;100786.88;5073730;28;20506;-77
2022/09/14 04:16:27;;;;;;;15.70;6.80;;;;;;;20.76;55.19;100782.69;5075478;28;20027;-79
2022/09/14 04:18:52;;;;;;;13.32;6.85;;;;;;;20.79;54.52;100775.81;5075621;28;20381;-77
2022/09/14 04:21:20;;;;;;;16.50;7.18;;;;;;;20.78;54.97;100774.19;5075697;28;20036;-77
2022/09/14 04:23:46;;;;;;;11.13;6.40;;;;;;;20.63;55.25;100772.47;5073732;28;20028;-78
2022/09/14 04:26:15;;;;;;;15.05;7.90;;;;;;;20.64;55.20;100767.81;5074686;28;20543;-79
2022/09/14 04:28:41;;;;;;;13.05;6.97;;;;;;;20.67;55.20;100761.78;5078090;28;20047;-78
2022/09/14 04:31:08;;;;;;;12.30;6.95;;;;;;;20.71;54.87;100763.63;5095274;28;20638;-79
2022/09/14 04:33:34;;;;;;;15.57;7.43;;;;;;;20.61;55.62;100771.16;5095446;28;20492;-79
2022/09/14 04:36:08;;;;;;;16.63;7.90;;;;;;;20.64;55.13;100765.91;5094720;28;20047;-79
2022/09/14 04:38:36;;;;;;;17.27;6.97;;;;;;;20.54;55.50;100762.50;5091855;28;20119;-79
2022/09/14 04:41:05;;;;;;;12.85;6.22;;;;;;;20.60;55.48;100764.06;5086235;28;20039;-78
2022/09/14 04:43:30;;;;;;;16.05;6.93;;;;;;;20.65;55.54;100758.53;5083901;28;20036;-79
2022/09/14 04:46:01;;;;;;;17.88;6.90;;;;;;;20.64;55.58;100752.25;5084190;28;20152;-78
2022/09/14 04:48:27;;;;;;;15.27;7.28;;;;;;;20.53;55.72;100750.78;5067435;28;20495;-79
2022/09/14 04:50:53;;;;;;;13.40;6.80;;;;;;;20.57;55.45;100751.00;5083083;28;20052;-78
2022/09/14 04:53:18;;;;;;;16.50;6.72;;;;;;;20.55;55.55;100754.03;5080921;28;20447;-79
2022/09/14 04:55:44;;;;;;;15.73;7.35;;;;;;;20.62;55.18;100761.84;5088689;28;20046;-78
2022/09/14 04:58:09;;;;;;;14.85;7.35;;;;;;;20.77;55.16;100764.38;5086346;28;20033;-77
2022/09/14 05:00:35;;;;;;;12.55;5.63;;;;;;;20.81;55.33;100765.41;5062098;28;20051;-77
2022/09/14 05:03:03;;;;;;;11.30;7.18;;;;;;;20.91;54.86;100762.53;5094216;28;20042;-78
2022/09/14 05:05:28;;;;;;;11.88;6.43;;;;;;;20.98;54.96;100765.72;5094828;28;20107;-77
2022/09/14 05:07:53;;;;;;;13.30;7.32;;;;;;;20.83;55.36;100764.00;5094794;28;20020;-77
2022/09/14 05:10:19;;;;;;;17.40;7.03;;;;;;;20.72;55.56;100761.69;5095467;28;20044;-78
2022/09/14 05:12:44;;;;;;;11.65;6.82;;;;;;;20.83;55.61;100761.25;5072917;28;20066;-78
2022/09/14 05:15:10;;;;;;;18.02;7.22;;;;;;;20.79;55.49;100748.50;5086655;28;20042;-79
2022/09/14 05:17:35;;;;;;;11.23;6.22;;;;;;;20.96;54.85;100746.88;5085837;28;20492;-77
2022/09/14 05:20:01;;;;;;;16.23;6.45;;;;;;;20.98;54.87;100746.59;5081695;28;20028;-79
2022/09/14 05:22:26;;;;;;;15.27;7.10;;;;;;;20.97;55.07;100743.03;5076173;28;20032;-77
2022/09/14 05:24:51;;;;;;;25.98;6.97;;;;;;;20.95;55.20;100741.72;5092071;28;20052;-78
2022/09/14 05:27:17;;;;;;;13.13;7.60;;;;;;;21.00;55.36;100738.91;5092205;28;20024;-77
2022/09/14 05:29:42;;;;;;;12.02;6.78;;;;;;;21.02;55.01;100728.50;5089039;28;20044;-78
2022/09/14 05:32:08;;;;;;;11.30;6.72;;;;;;;21.06;55.17;100742.38;5091252;28;20074;-78
2022/09/14 05:34:33;;;;;;;16.02;7.00;;;;;;;21.04;54.96;100733.69;5084716;28;20096;-78
2022/09/14 05:36:59;;;;;;;22.70;7.88;;;;;;;21.11;54.50;100745.84;5087849;28;20029;-78
2022/09/14 05:39:24;;;;;;;17.67;8.38;;;;;;;21.22;54.36;100743.78;5085213;28;20028;-78
2022/09/14 05:41:50;;;;;;;15.32;7.72;;;;;;;21.11;55.11;100745.84;5081727;28;20070;-77
2022/09/14 05:44:16;;;;;;;16.63;9.60;;;;;;;21.17;54.73;100750.13;5083751;28;20151;-79
2022/09/14 05:46:42;;;;;;;18.15;8.38;;;;;;;21.17;55.03;100752.88;5080748;28;20062;-77
2022/09/14 05:49:07;;;;;;;15.60;8.25;;;;;;;21.25;55.11;100757.66;5083469;28;20370;-78
2022/09/14 05:51:33;;;;;;;12.95;8.23;;;;;;;21.39;54.63;100761.25;5084871;28;20036;-77
2022/09/14 05:53:58;;;;;;;16.15;7.57;;;;;;;21.36;54.73;100756.41;5090687;28;20039;-76
2022/09/14 05:56:28;;;;;;;15.80;7.72;;;;;;;21.44;53.80;100754.91;5092284;28;20036;-80
2022/09/14 05:58:54;;;;;;;12.15;7.50;;;;;;;21.45;54.13;100754.59;5071500;28;20012;-78
2022/09/14 06:01:22;;;;;;;18.58;6.82;;;;;;;21.62;54.27;100757.56;5085530;28;20526;-79
2022/09/14 06:03:49;;;;;;;16.70;7.43;;;;;;;21.55;54.21;100750.88;5082621;28;20036;-77
2022/09/14 06:06:17;;;;;;;12.10;6.13;;;;;;;21.66;53.87;100761.34;5082338;28;20036;-78
2022/09/14 06:08:43;;;;;;;13.02;6.72;;;;;;;21.64;53.93;100762.78;5065708;28;20028;-77
2022/09/14 06:11:14;;;;;;;12.80;5.28;;;;;;;21.69;54.01;100755.28;5082476;28;20496;-77
2022/09/14 06:13:40;;;;;;;9.50;5.80;;;;;;;21.81;54.10;100760.28;5082389;28;20052;-76
2022/09/14 06:16:11;;;;;;;14.07;6.07;;;;;;;21.83;53.73;100764.38;5084469;28;20404;-77
2022/09/14 06:18:38;;;;;;;10.77;5.70;;;;;;;21.86;53.77;100759.41;5084959;28;20036;-76
2022/09/14 06:21:05;;;;;;;14.02;5.35;;;;;;;21.96;53.35;100750.97;5088927;28;20419;-79
2022/09/14 06:23:31;;;;;;;12.45;5.10;;;;;;;22.01;53.10;100748.97;5082208;28;20029;-77
2022/09/14 06:25:59;;;;;;;17.95;4.85;;;;;;;22.22;52.77;100743.91;5063275;28;20031;-77
2022/09/14 06:28:26;;;;;;;9.48;4.65;;;;;;;22.32;52.07;100735.47;5084079;28;20025;-78
2022/09/14 06:30:51;;;;;;;12.45;4.28;;;;;;;22.24;52.47;100744.41;5083440;28;20089;-79
2022/09/14 06:33:18;;;;;;;8.77;4.90;;;;;;;22.32;52.08;100743.69;5088195;28;20037;-79
2022/09/14 06:35:56;;;;;;;13.20;4.40;;;;;;;22.31;52.55;100755.78;5085609;28;20140;-77
2022/09/14 06:38:22;;;;;;;15.80;3.90;;;;;;;22.36;52.16;100753.75;5080634;28;20045;-77
2022/09/14 06:40:59;;;;;;;13.68;3.97;;;;;;;22.47;52.20;100746.94;5088160;28;20442;-78
2022/09/14 06:43:26;;;;;;;10.05;3.70;;;;;;;22.51;52.29;100747.13;5060510;28;20082;-77
2022/09/14 06:46:00;;;;;;;10.65;3.15;;;;;;;22.52;52.14;100743.28;5082268;28;20055;-78
2022/09/14 06:48:32;;;;;;;11.48;4.15;;;;;;;22.63;51.98;100744.69;5080933;28;20279;-79
2022/09/14 06:50:58;;;;;;;17.08;3.78;;;;;;;22.63;51.47;100741.97;5070352;28;20044;-78
2022/09/14 06:53:24;;;;;;;13.45;5.03;;;;;;;22.76;51.38;100752.06;5077313;28;20032;-77
2022/09/14 06:55:49;;;;;;;10.00;3.88;;;;;;;22.65;51.41;100764.38;5077512;28;20044;-78
2022/09/14 06:58:15;;;;;;;11.20;4.05;;;;;;;22.61;51.93;100761.44;5075474;28;20039;-78
2022/09/14 07:00:40;;;;;;;9.25;3.28;;;;;;;22.78;51.60;100760.00;5071901;28;20044;-77
2022/09/14 07:03:06;;;;;;;10.90;3.75;;;;;;;22.83;51.75;100755.22;5081488;28;20028;-79
2022/09/14 07:05:31;;;;;;;10.88;3.85;;;;;;;22.96;52.43;100751.63;5091741;28;20062;-78
2022/09/14 07:07:57;;;;;;;18.80;4.35;;;;;;;23.12;51.80;100755.63;5091466;28;20464;-77
2022/09/14 07:10:26;;;;;;;16.23;4.85;;;;;;;22.78;52.07;100751.78;5075188;28;20447;-78
2022/09/14 07:12:53;;;;;;;24.33;4.57;;;;;;;23.29;50.98;100757.72;5063705;28;20048;-79
2022/09/14 07:15:18;;;;;;;12.65;4.25;;;;;;;23.29;50.71;100758.50;5064751;28;20551;-78
2022/09/14 07:17:44;;;;;;;10.65;3.72;;;;;;;23.25;50.85;100756.72;5071676;28;20033;-77
2022/09/14 07:20:10;;;;;;;11.52;3.85;;;;;;;23.17;50.96;100750.03;5071524;28;20040;-79
2022/09/14 07:22:35;;;;;;;12.23;3.80;;;;;;;23.26;51.05;100745.41;5078958;28;20028;-78
2022/09/14 07:25:01;;;;;;;12.88;4.60;;;;;;;23.36;50.67;100745.22;5079004;28;20055;-77
2022/09/14 07:27:26;;;;;;;9.30;3.35;;;;;;;23.50;50.37;100742.38;5071490;28;20381;-78
2022/09/14 07:29:52;;;;;;;10.25;3.00;;;;;;;23.61;50.29;100742.91;5073420;28;20037;-77
2022/09/14 07:32:18;;;;;;;8.00;2.88;;;;;;;23.77;49.51;100746.88;5055621;28;20040;-78
2022/09/14 07:34:44;;;;;;;11.98;4.05;;;;;;;23.80;49.60;100746.28;5092498;28;20621;-77
2022/09/14 07:37:09;;;;;;;14.20;3.90;;;;;;;23.87;49.20;100747.44;5084801;28;20033;-79
2022/09/14 07:39:35;;;;;;;12.43;3.60;;;;;;;23.96;49.32;100748.28;5087339;28;20046;-76
2022/09/14 07:42:01;;;;;;;14.23;3.78;;;;;;;24.16;48.71;100752.44;5091606;28;20701;-78
2022/09/14 07:44:27;;;;;;;10.95;3.83;;;;;;;24.22;48.36;100754.72;5089424;28;20036;-79
2022/09/14 07:46:52;;;;;;;7.82;2.92;;;;;;;23.95;48.40;100756.84;5092004;28;20024;-77
2022/09/14 07:49:17;;;;;;;12.20;3.25;;;;;;;24.04;48.28;100753.03;5073573;28;20036;-78
2022/09/14 07:51:44;;;;;;;10.55;2.95;;;;;;;24.14;47.79;100750.00;5072559;28;20466;-77
2022/09/14 07:54:12;;;;;;;7.65;2.40;;;;;;;24.35;47.48;100759.28;5071924;28;20565;-80
2022/09/14 07:56:38;;;;;;;9.65;3.25;;;;;;;24.34;47.76;100763.16;5085315;28;20068;-78
2022/09/14 07:59:04;;;;;;;19.15;3.13;;;;;;;24.57;47.57;100763.84;5055401;28;20131;-77
2022/09/14 08:01:30;;;;;;;8.50;2.95;;;;;;;24.63;46.75;100768.06;5092491;28;20536;-77
2022/09/14 08:03:59;;;;;;;9.27;2.47;;;;;;;24.63;45.97;100773.56;5089442;28;20036;-77
2022/09/14 08:06:25;;;;;;;13.95;2.47;;;;;;;24.79;45.71;100754.72;5087697;28;20093;-76
2022/09/14 08:08:52;;;;;;;12.85;2.40;;;;;;;24.96;45.08;100746.50;5078261;28;20476;-76
2022/09/14 08:11:22;;;;;;;19.38;2.30;;;;;;;25.08;44.18;100743.91;5082640;28;20040;-77
2022/09/14 08:14:02;;;;;;;16.63;2.40;;;;;;;24.75;44.52;100732.56;5080658;28;20058;-78
2022/09/14 08:16:30;;;;;;;11.55;1.70;;;;;;;25.27;44.26;100727.88;5067630;28;20047;-77
2022/09/14 08:19:01;;;;;;;9.57;1.55;;;;;;;25.57;42.70;100743.38;5075080;28;20029;-77
2022/09/14 08:21:29;;;;;;;4.70;1.20;;;;;;;25.62;42.50;100742.41;5074938;28;20048;-77
2022/09/14 08:23:56;;;;;;;7.70;1.63;;;;;;;25.59;42.65;100740.31;5074435;28;20083;-76
2022/09/14 08:26:23;;;;;;;8.50;1.13;;;;;;;25.61;41.54;100743.56;5075389;28;20052;-78
2022/09/14 08:28:50;;;;;;;12.88;1.30;;;;;;;25.48;41.51;100733.53;5074807;28;20052;-79
2022/09/14 08:31:19;;;;;;;8.18;1.27;;;;;;;25.62;41.41;100743.22;5085123;28;20036;-78
2022/09/14 08:33:48;;;;;;;4.38;0.82;;;;;;;25.55;40.59;100733.84;5090015;28;20036;-77
2022/09/14 08:36:16;;;;;;;6.63;0.82;;;;;;;25.90;40.13;100738.13;5081352;28;20056;-77
2022/09/14 08:38:42;;;;;;;8.23;1.33;;;;;;;25.87;40.74;100734.06;5094165;28;20758;-78
2022/09/14 08:41:28;;;;;;;10.98;1.85;;;;;;;26.01;40.55;100733.84;5087977;28;20032;-78
2022/09/14 08:43:58;;;;;;;11.32;1.30;;;;;;;25.83;40.19;100727.59;5088056;28;20066;-79
2022/09/14 08:46:32;;;;;;;3.15;0.68;;;;;;;25.71;39.91;100721.97;5092959;28;20069;-77
2022/09/14 08:49:02;;;;;;;8.85;1.42;;;;;;;25.82;39.32;100714.97;5089699;28;20043;-77
2022/09/14 08:51:28;;;;;;;11.90;2.05;;;;;;;25.66;39.35;100719.41;5085238;28;20047;-78
2022/09/14 08:53:56;;;;;;;6.40;1.13;;;;;;;26.19;38.59;100718.06;5076213;28;20029;-79
2022/09/14 08:56:30;;;;;;;8.98;0.80;;;;;;;26.32;38.30;100722.56;5094983;28;20043;-77
2022/09/14 08:59:35;;;;;;;6.97;1.02;;;;;;;26.35;38.67;100727.41;5095128;28;20483;-76
2022/09/14 09:02:36;;;;;;;7.03;1.60;;;;;;;26.19;37.63;100727.16;4979725;28;20082;-78
2022/09/14 09:05:10;;;;;;;11.70;1.48;;;;;;;26.15;38.17;100722.63;4967686;28;20066;-79
2022/09/14 09:07:49;;;;;;;5.60;0.85;;;;;;;26.14;37.98;100730.13;4983984;28;20081;-78
2022/09/14 09:10:15;;;;;;;5.70;0.70;;;;;;;26.09;38.57;100725.59;4983014;28;20039;-79
2022/09/14 09:12:53;;;;;;;4.30;0.80;;;;;;;26.14;38.89;100723.78;4972442;28;20482;-78
2022/09/14 09:15:26;;;;;;;8.00;1.90;;;;;;;25.87;39.05;100716.72;4972555;28;20042;-80
2022/09/14 09:18:02;;;;;;;5.50;1.15;;;;;;;26.08;38.67;100714.91;4975980;28;20034;-78
2022/09/14 09:20:31;;;;;;;4.50;0.90;;;;;;;26.20;38.50;100709.47;4983768;28;20049;-77
2022/09/14 09:23:20;;;;;;;11.65;1.10;;;;;;;26.38;38.44;100708.25;4990792;28;20045;-78
2022/09/14 09:26:05;;;;;;;5.28;1.05;;;;;;;26.14;38.69;100699.00;4992427;28;20109;-79
2022/09/14 09:28:32;;;;;;;7.53;0.93;;;;;;;26.29;38.25;100702.00;4991805;28;20053;-77
2022/09/14 09:31:03;;;;;;;8.85;1.75;;;;;;;26.29;39.28;100701.16;4981266;28;20522;-79
2022/09/14 09:33:30;;;;;;;7.10;0.90;;;;;;;26.45;38.80;100700.28;4987311;28;20058;-80
2022/09/14 09:35:55;;;;;;;6.55;1.00;;;;;;;26.48;39.34;100707.84;4974744;28;20054;-78
2022/09/14 09:38:24;;;;;;;5.43;0.98;;;;;;;26.56;39.03;100701.47;4991458;28;20472;-79
2022/09/14 09:41:13;;;;;;;8.88;1.35;;;;;;;26.45;39.02;100692.00;5088789;28;20044;-78
2022/09/14 09:44:01;;;;;;;5.68;0.80;;;;;;;26.66;39.21;100701.09;5079299;28;20044;-77
2022/09/14 09:46:33;;;;;;;10.65;1.33;;;;;;;26.74;38.83;100697.50;5082110;28;20425;-78
2022/09/14 09:49:02;;;;;;;7.88;2.10;;;;;;;26.73;38.86;100700.59;5092349;28;20044;-78
2022/09/14 09:51:30;;;;;;;3.08;0.90;;;;;;;26.87;38.13;100703.84;5074726;28;20047;-78
2022/09/14 09:54:19;;;;;;;8.85;1.50;;;;;;;26.81;38.06;100696.97;5087632;28;20035;-77
2022/09/14 09:56:55;;;;;;;2.65;1.02;;;;;;;26.93;38.69;100688.72;5064734;28;20040;-77
2022/09/14 09:59:25;;;;;;;5.85;0.90;;;;;;;27.03;38.64;100696.59;5080632;28;20048;-78
2022/09/14 10:01:53;;;;;;;7.72;1.20;;;;;;;27.01;38.48;100687.06;5081122;28;20488;-79
2022/09/14 10:04:23;;;;;;;8.27;1.00;;;;;;;26.97;38.57;100677.84;5081355;28;20445;-78
2022/09/14 10:06:52;;;;;;;5.47;0.95;;;;;;;26.51;38.14;100684.34;5081422;28;20048;-79
2022/09/14 10:09:28;;;;;;;5.32;0.73;;;;;;;25.93;39.25;100690.63;5079579;28;20036;-78
2022/09/14 10:12:00;;;;;;;6.85;1.08;;;;;;;26.52;38.29;100686.75;5080453;28;20036;-77
2022/09/14 10:14:34;;;;;;;4.18;0.77;;;;;;;26.77;37.45;100685.78;5084079;28;20033;-80
2022/09/14 10:17:15;;;;;;;5.60;0.93;;;;;;;26.43;38.45;100682.44;5077233;28;20036;-78
2022/09/14 10:19:47;;;;;;;11.32;1.17;;;;;;;26.30;38.93;100684.28;5079510;28;20020;-78
2022/09/14 10:22:15;;;;;;;7.47;0.90;;;;;;;26.56;38.25;100676.66;5080571;28;20052;-78
2022/09/14 10:24:52;;;;;;;8.55;1.20;;;;;;;26.75;37.85;100682.53;5086211;28;20044;-80
2022/09/14 10:27:44;;;;;;;6.07;1.45;;;;;;;26.59;39.04;100678.78;5079816;28;20032;-76
2022/09/14 10:30:18;;;;;;;6.00;0.77;;;;;;;26.64;38.74;100677.75;5076608;28;20048;-78
2022/09/14 10:33:04;;;;;;;6.63;0.85;;;;;;;26.77;38.82;100682.22;5078012;28;20036;-78
2022/09/14 10:35:55;;;;;;;10.57;1.67;;;;;;;26.58;37.88;100682.66;5083349;28;20074;-77
2022/09/14 10:38:35;;;;;;;11.65;1.00;;;;;;;26.89;38.88;100676.75;5071613;28;20063;-78
2022/09/14 10:41:10;;;;;;;4.40;0.90;;;;;;;26.00;39.49;100686.22;5077278;28;20134;-79
2022/09/14 10:43:55;;;;;;;8.43;0.88;;;;;;;25.25;40.74;100681.44;5080390;28;20024;-76
2022/09/14 10:46:28;;;;;;;1.92;0.60;;;;;;;25.86;40.13;100673.81;5079986;28;20634;-78
2022/09/14 10:49:17;;;;;;;5.28;0.80;;;;;;;25.97;39.43;100673.13;5083776;28;20040;-77
2022/09/14 10:52:10;;;;;;;6.72;0.50;;;;;;;26.40;38.97;100661.88;5091609;28;20036;-77
2022/09/14 10:55:13;;;;;;;5.05;0.70;;;;;;;26.26;37.73;100664.06;5085703;28;20391;-77
2022/09/14 10:58:36;;;;;;;3.65;0.50;;;;;;;26.41;37.61;100680.03;5072256;28;20075;-78
2022/09/14 11:01:07;;;;;;;4.25;0.40;;;;;;;26.65;37.35;100657.31;5009523;28;20468;-77
2022/09/14 11:03:51;;;;;;;2.30;0.57;;;;;;;26.30;37.66;100661.47;5027801;28;20132;-77
2022/09/14 11:06:45;;;;;;;3.60;0.95;;;;;;;26.38;37.41;100660.59;5018288;28;20065;-76
2022/09/14 11:09:17;;;;;;;7.38;0.90;;;;;;;27.04;36.96;100665.09;5028928;28;20120;-77
2022/09/14 11:12:10;;;;;;;2.47;0.50;;;;;;;27.54;35.78;100664.91;5028598;28;20041;-77
2022/09/14 11:15:14;;;;;;;2.33;0.73;;;;;;;27.35;35.33;100667.41;5027255;28;20121;-77
2022/09/14 11:17:46;;;;;;;7.28;0.85;;;;;;;27.27;35.73;100669.09;5019924;28;20037;-73
2022/09/14 11:20:30;;;;;;;2.35;0.50;;;;;;;27.26;35.85;100659.19;5009479;28;20153;-74
2022/09/14 11:23:05;;;;;;;7.05;0.75;;;;;;;27.39;35.91;100660.06;5008952;28;20061;-75
2022/09/14 11:26:01;;;;;;;6.30;0.70;;;;;;;27.51;36.00;100665.63;5018620;28;20037;-75
2022/09/14 11:28:33;;;;;;;8.15;0.70;;;;;;;27.26;35.80;100661.16;5027530;28;20061;-73
2022/09/14 11:31:06;;;;;;;6.05;0.90;;;;;;;27.20;36.38;100668.84;5029332;28;20041;-75
2022/09/14 11:33:42;;;;;;;5.53;0.90;;;;;;;26.98;36.10;100657.38;5025824;28;20438;-75
2022/09/14 11:36:31;;;;;;;3.95;0.68;;;;;;;27.14;36.08;100661.13;5081779;28;20070;-73
2022/09/14 11:39:05;;;;;;;5.10;0.80;;;;;;;26.74;36.96;100664.41;5090470;28;20596;-77